There are multiple Weather-warnings   Click here for more information


Meteo18 Weather Cam more information Meteo18 Weather Cam


warning for Thunderstorms more information blitzortung!


Rain radar more information rain snow radar


Visit our other weather sites:

Template documentation
and downloads

And another site



Weather Underground History page Text

Daily Summary for June 6, 2017 Units:  English    Metric   Both
« Previous Day
Next Day »
Daily Weekly Monthly Yearly Custom
  High: Low: Average:
Temperature: 63.1 °F 51.6 °F 57 °F
Dew Point: 55.2 °F 44.6 °F 49.6 °F
Humidity: 95 % 52 % 78 %
Wind Speed: 29 mph 0 mph 7.3 mph
Wind Gust: 30 mph - -
Wind:- - WSW
Pressure: 30 in 29.7 in -
Precipitation: 0.43 in    
Historical Graphs
 
 
Tabular Data for June 6, 2017
Time Temperature Dew Point Pressure Wind Wind Speed Wind Gust Humidity Rainfall Rate (Hourly)
00:02 57.4 °F 52.3 °F 29.8 in Calm   4 mph 83 % 0 in
00:07 57.4 °F 52.3 °F 29.8 in SSW 2 mph 3 mph 83 % 0 in
00:12 57.4 °F 52.3 °F 29.8 in Calm   3 mph 83 % 0 in
00:17 57.4 °F 52.5 °F 29.8 in SW 2 mph 3 mph 84 % 0 in
00:22 57.4 °F 52.5 °F 29.8 in SSW 3 mph 4 mph 84 % 0 in
00:27 57.4 °F 52.5 °F 29.8 in SSW 5 mph 5 mph 84 % 0 in
00:32 57.4 °F 52.5 °F 29.8 in SW 3 mph 5 mph 84 % 0 in
00:42 57.7 °F 52.7 °F 29.8 in SW 5 mph 5 mph 83 % 0 in
00:47 57.9 °F 52.7 °F 29.8 in SSW 3 mph 8 mph 83 % 0 in
00:52 58.1 °F 52.7 °F 29.8 in SW 4 mph 8 mph 82 % 0 in
00:57 58.3 °F 52.9 °F 29.8 in WSW 4 mph 8 mph 82 % 0 in
01:02 58.5 °F 53.1 °F 29.8 in South 4 mph 6 mph 82 % 0 in
01:07 58.5 °F 53.1 °F 29.8 in SW 3 mph 7 mph 82 % 0 in
01:12 58.6 °F 52.9 °F 29.8 in SW 6 mph 7 mph 81 % 0 in
01:17 58.6 °F 53.2 °F 29.8 in SW 5 mph 7 mph 82 % 0 in
01:22 58.6 °F 52.9 °F 29.8 in SW 4 mph 7 mph 81 % 0 in
01:27 59 °F 52.5 °F 29.8 in WSW 5 mph 8 mph 79 % 0 in
01:32 59.7 °F 52.5 °F 29.7 in SSW 3 mph 11 mph 77 % 0 in
01:37 60.1 °F 52.9 °F 29.7 in SW 9 mph 11 mph 77 % 0 in
01:42 59.7 °F 52.9 °F 29.7 in SSW 5 mph 11 mph 78 % 0 in
01:47 59.4 °F 53.2 °F 29.7 in SSW 3 mph 11 mph 80 % 0 in
01:52 59.2 °F 53.4 °F 29.7 in South 2 mph 11 mph 81 % 0 in
01:57 59.2 °F 53.4 °F 29.7 in SW 4 mph 8 mph 81 % 0 in
02:02 59.2 °F 53.1 °F 29.7 in West 2 mph 6 mph 80 % 0 in
02:07 59.4 °F 52.9 °F 29.7 in SSW 4 mph 10 mph 79 % 0 in
02:12 59.2 °F 53.4 °F 29.7 in SW 7 mph 10 mph 81 % 0 in
02:17 59.2 °F 53.1 °F 29.7 in SSW 9 mph 19 mph 80 % 0.02 in
02:22 58.5 °F 53.1 °F 29.7 in WSW 8 mph 19 mph 82 % 0.02 in
02:27 57.7 °F 53.2 °F 29.7 in SSW 2 mph 19 mph 85 % 0.02 in
02:32 57.2 °F 53.4 °F 29.7 in WSW 7 mph 18 mph 87 % 0.02 in
02:37 56.8 °F 53.2 °F 29.7 in SSW 3 mph 12 mph 88 % 0.02 in
02:42 56.7 °F 53.4 °F 29.7 in SSW 3 mph 13 mph 89 % 0.05 in
02:47 56.5 °F 53.6 °F 29.7 in SSW 4 mph 13 mph 90 % 0.06 in
02:52 56.5 °F 54 °F 29.7 in South 2 mph 8 mph 91 % 0.06 in
02:57 56.3 °F 54 °F 29.7 in SSW 3 mph 7 mph 92 % 0.07 in
03:02 56.3 °F 54 °F 29.7 in SSW 3 mph 8 mph 92 % 0.09 in
03:07 56.1 °F 53.8 °F 29.7 in SSW 7 mph 8 mph 92 % 0.1 in
03:12 56.1 °F 54.1 °F 29.7 in SW 7 mph 12 mph 93 % 0.12 in
03:17 56.1 °F 54.1 °F 29.7 in SSW 6 mph 13 mph 93 % 0.13 in
03:22 55.9 °F 54 °F 29.7 in SW 7 mph 13 mph 93 % 0.15 in
03:27 55.8 °F 53.8 °F 29.7 in SW 9 mph 13 mph 93 % 0.17 in
03:32 55.8 °F 53.8 °F 29.7 in SSW 4 mph 11 mph 93 % 0.17 in
03:37 55.8 °F 54.1 °F 29.7 in SSW 2 mph 11 mph 94 % 0.17 in
03:42 55.8 °F 54.1 °F 29.7 in South 2 mph 11 mph 94 % 0.17 in
03:47 55.6 °F 54 °F 29.7 in SSW 3 mph 9 mph 94 % 0.17 in
03:52 55.6 °F 54 °F 29.7 in SSE 2 mph 9 mph 94 % 0.16 in
03:57 55.6 °F 54 °F 29.7 in SSE 3 mph 9 mph 94 % 0.14 in
04:02 55.6 °F 54 °F 29.7 in SW 5 mph 8 mph 94 % 0.13 in
04:07 55.6 °F 54.1 °F 29.7 in SSE 2 mph 8 mph 95 % 0.11 in
04:12 55.6 °F 54.1 °F 29.7 in SSW 3 mph 8 mph 95 % 0.09 in
04:17 55.6 °F 54.1 °F 29.7 in SSW 3 mph 6 mph 95 % 0.07 in
04:22 55.8 °F 54.3 °F 29.7 in SSW 3 mph 6 mph 95 % 0.06 in
04:27 55.8 °F 54.3 °F 29.7 in SW 3 mph 6 mph 95 % 0.05 in
04:32 55.8 °F 54.3 °F 29.7 in SE 3 mph 6 mph 95 % 0.03 in
04:37 55.8 °F 54.3 °F 29.7 in SSE 2 mph 8 mph 95 % 0.02 in
04:42 55.8 °F 54.3 °F 29.7 in SW 4 mph 8 mph 95 % 0.02 in
04:47 55.8 °F 54.3 °F 29.7 in SSE 3 mph 7 mph 95 % 0.02 in
04:52 55.9 °F 54.5 °F 29.7 in SSW 2 mph 11 mph 95 % 0.02 in
04:57 55.9 °F 54.5 °F 29.7 in South 10 mph 12 mph 95 % 0.02 in
05:02 56.3 °F 54.7 °F 29.7 in SSW 5 mph 12 mph 94 % 0.02 in
05:07 56.5 °F 54.9 °F 29.7 in SSW 9 mph 12 mph 94 % 0.02 in
05:12 56.5 °F 54.5 °F 29.7 in SSE 7 mph 12 mph 93 % 0.02 in
05:17 56.7 °F 54.7 °F 29.7 in SW 5 mph 14 mph 93 % 0.02 in
05:22 56.5 °F 54.5 °F 29.7 in South 10 mph 14 mph 93 % 0.05 in
05:27 56.5 °F 54.9 °F 29.7 in SSW 6 mph 14 mph 94 % 0.05 in
05:32 56.5 °F 54.9 °F 29.7 in South 7 mph 13 mph 94 % 0.06 in
05:37 56.5 °F 54.9 °F 29.7 in WSW 4 mph 13 mph 94 % 0.06 in
05:42 56.5 °F 54.9 °F 29.7 in WSW 5 mph 12 mph 94 % 0.06 in
05:47 56.5 °F 54.9 °F 29.7 in SW 1 mph 12 mph 94 % 0.06 in
05:52 56.5 °F 54.9 °F 29.7 in WSW 10 mph 14 mph 94 % 0.07 in
05:57 56.7 °F 55 °F 29.7 in SSW 9 mph 14 mph 94 % 0.07 in
06:02 56.7 °F 55 °F 29.7 in WSW 11 mph 17 mph 94 % 0.08 in
06:07 56.7 °F 55 °F 29.7 in SSW 6 mph 18 mph 94 % 0.11 in
06:12 56.7 °F 55 °F 29.7 in SW 7 mph 18 mph 94 % 0.12 in
06:17 56.7 °F 55 °F 29.7 in WSW 11 mph 18 mph 94 % 0.09 in
06:27 56.7 °F 55 °F 29.7 in WSW 8 mph 16 mph 94 % 0.08 in
06:32 56.7 °F 55 °F 29.7 in SW 13 mph 16 mph 94 % 0.08 in
06:42 56.8 °F 55.2 °F 29.7 in WSW 8 mph 21 mph 94 % 0.06 in
06:52 56.8 °F 55.2 °F 29.7 in SW 6 mph 22 mph 94 % 0.06 in
06:57 56.7 °F 55 °F 29.7 in West 3 mph 20 mph 94 % 0.06 in
07:02 56.7 °F 55 °F 29.7 in WSW 12 mph 21 mph 94 % 0.06 in
07:07 56.7 °F 54.7 °F 29.7 in WSW 12 mph 21 mph 93 % 0.03 in
07:12 56.7 °F 54.3 °F 29.7 in WSW 7 mph 21 mph 92 % 0.03 in
07:17 56.7 °F 54.1 °F 29.7 in WSW 11 mph 21 mph 91 % 0.03 in
07:22 56.3 °F 53.1 °F 29.7 in West 13 mph 23 mph 89 % 0.02 in
07:27 55.9 °F 51.8 °F 29.7 in West 7 mph 23 mph 86 % 0.02 in
07:32 55.8 °F 51.3 °F 29.7 in West 12 mph 23 mph 85 % 0.02 in
07:37 55.6 °F 51.1 °F 29.7 in West 7 mph 22 mph 85 % 0.02 in
07:42 55.4 °F 51.3 °F 29.7 in WSW 7 mph 22 mph 86 % 0.02 in
07:47 55.6 °F 51.1 °F 29.7 in WNW 7 mph 22 mph 85 % 0.02 in
07:52 55.6 °F 51.1 °F 29.7 in WSW 10 mph 15 mph 85 % 0.02 in
07:57 55.2 °F 50.7 °F 29.7 in West 13 mph 19 mph 85 % 0.01 in
08:02 54.9 °F 50.7 °F 29.7 in West 9 mph 21 mph 86 % 0 in
08:07 54.3 °F 49.8 °F 29.7 in West 12 mph 21 mph 85 % 0 in
08:12 54.1 °F 49.5 °F 29.7 in NW 3 mph 21 mph 84 % 0 in
08:17 54.1 °F 50 °F 29.8 in WNW 4 mph 21 mph 86 % 0 in
08:22 54.1 °F 50.7 °F 29.8 in WSW 9 mph 21 mph 88 % 0 in
08:32 53.4 °F 49.1 °F 29.8 in WNW 11 mph 18 mph 85 % 0 in
08:37 53.6 °F 49.3 °F 29.8 in WNW 9 mph 18 mph 85 % 0 in
08:42 54 °F 49.3 °F 29.8 in WNW 9 mph 18 mph 84 % 0 in
08:47 54.3 °F 48.9 °F 29.8 in WNW 12 mph 16 mph 82 % 0 in
08:52 54.7 °F 48.9 °F 29.8 in WNW 11 mph 20 mph 81 % 0 in
08:57 54.9 °F 48.7 °F 29.8 in WNW 9 mph 20 mph 80 % 0 in
09:02 54.9 °F 48.6 °F 29.8 in WSW 9 mph 19 mph 79 % 0 in
09:07 54.9 °F 48.2 °F 29.8 in WNW 4 mph 17 mph 78 % 0 in
09:12 54.7 °F 48.6 °F 29.8 in West 6 mph 15 mph 80 % 0 in
09:17 54 °F 48.2 °F 29.8 in WNW 5 mph 19 mph 81 % 0 in
09:22 54 °F 48.6 °F 29.8 in WNW 8 mph 19 mph 82 % 0 in
09:27 54.1 °F 47.8 °F 29.8 in WNW 7 mph 20 mph 79 % 0 in
09:32 54.3 °F 48.6 °F 29.8 in SW 10 mph 20 mph 81 % 0 in
09:37 54 °F 47.7 °F 29.8 in West 14 mph 20 mph 79 % 0 in
09:42 54 °F 48 °F 29.8 in WSW 11 mph 18 mph 80 % 0 in
09:47 54.1 °F 48.4 °F 29.8 in West 9 mph 18 mph 81 % 0 in
09:52 54.1 °F 48 °F 29.8 in SW 7 mph 17 mph 80 % 0 in
09:57 54.1 °F 47.8 °F 29.8 in West 11 mph 17 mph 79 % 0 in
10:02 54.1 °F 48.4 °F 29.8 in WSW 5 mph 17 mph 81 % 0 in
10:07 54.1 °F 47.5 °F 29.8 in West 14 mph 17 mph 78 % 0 in
10:12 55 °F 49.3 °F 29.8 in WNW 7 mph 17 mph 81 % 0 in
10:22 55.2 °F 47.8 °F 29.8 in WSW 5 mph 20 mph 76 % 0 in
10:27 55.2 °F 48.2 °F 29.8 in SW 9 mph 20 mph 77 % 0 in
10:37 56.1 °F 47.3 °F 29.8 in West 9 mph 20 mph 72 % 0 in
10:42 56.3 °F 47.5 °F 29.8 in West 7 mph 20 mph 72 % 0 in
10:47 55.9 °F 47.1 °F 29.8 in WSW 10 mph 20 mph 72 % 0 in
10:52 56.1 °F 46.8 °F 29.8 in WSW 13 mph 18 mph 71 % 0 in
10:57 56.7 °F 46.9 °F 29.8 in WSW 8 mph 19 mph 70 % 0 in
11:02 56.8 °F 47.5 °F 29.8 in WSW 9 mph 20 mph 71 % 0 in
11:07 57 °F 46.9 °F 29.8 in WSW 11 mph 20 mph 69 % 0 in
11:12 57 °F 46.6 °F 29.8 in West 8 mph 22 mph 68 % 0 in
11:17 57.4 °F 47.3 °F 29.8 in West 9 mph 26 mph 69 % 0 in
11:22 57 °F 45.3 °F 29.8 in WNW 8 mph 26 mph 65 % 0 in
11:27 57.4 °F 45.7 °F 29.8 in West 7 mph 23 mph 65 % 0 in
11:32 57.7 °F 45.7 °F 29.9 in West 10 mph 23 mph 64 % 0 in
11:37 57.7 °F 46.4 °F 29.9 in West 16 mph 25 mph 66 % 0 in
11:42 57.9 °F 45.9 °F 29.9 in WSW 6 mph 25 mph 64 % 0 in
11:47 57.9 °F 46.2 °F 29.9 in West 13 mph 25 mph 65 % 0 in
11:52 57.4 °F 45.7 °F 29.9 in WSW 16 mph 26 mph 65 % 0 in
11:57 57.4 °F 45.3 °F 29.9 in West 10 mph 26 mph 64 % 0 in
12:02 57.4 °F 46 °F 29.9 in West 10 mph 26 mph 66 % 0 in
12:07 57.7 °F 45.7 °F 29.9 in West 15 mph 22 mph 64 % 0 in
12:12 58.6 °F 46 °F 29.9 in WSW 6 mph 22 mph 63 % 0 in
12:17 59 °F 45.5 °F 29.9 in WNW 8 mph 22 mph 61 % 0 in
12:22 58.8 °F 45.3 °F 29.9 in West 15 mph 20 mph 61 % 0 in
12:32 59.7 °F 45.3 °F 29.9 in West 10 mph 25 mph 59 % 0 in
12:42 59.7 °F 45.3 °F 29.9 in SW 7 mph 25 mph 59 % 0 in
12:47 60.1 °F 45.3 °F 29.9 in WSW 9 mph 25 mph 58 % 0 in
12:52 60.1 °F 46.9 °F 29.9 in SW 6 mph 23 mph 62 % 0 in
12:57 60.4 °F 46.9 °F 29.9 in WSW 17 mph 22 mph 61 % 0 in
13:02 60.4 °F 46.4 °F 29.9 in SW 16 mph 22 mph 60 % 0 in
13:07 60.4 °F 46.4 °F 29.9 in West 11 mph 22 mph 60 % 0 in
13:12 61 °F 46.6 °F 29.9 in WSW 16 mph 22 mph 59 % 0 in
13:17 60.6 °F 47.5 °F 29.9 in WSW 14 mph 21 mph 62 % 0 in
13:22 60.6 °F 47.5 °F 29.9 in SW 8 mph 24 mph 62 % 0 in
13:27 61.2 °F 48 °F 29.9 in West 5 mph 24 mph 62 % 0 in
13:32 61.2 °F 46.2 °F 29.9 in WSW 12 mph 24 mph 58 % 0 in
13:37 61 °F 47.8 °F 29.9 in WSW 13 mph 21 mph 62 % 0 in
13:42 61 °F 46 °F 29.9 in WSW 12 mph 21 mph 58 % 0 in
13:47 61.2 °F 46.2 °F 29.9 in West 6 mph 21 mph 58 % 0 in
13:52 61.3 °F 47.8 °F 29.9 in WSW 15 mph 26 mph 61 % 0 in
13:57 61.2 °F 47.1 °F 29.9 in SW 6 mph 18 mph 60 % 0 in
14:02 61.3 °F 46 °F 29.9 in WSW 10 mph 22 mph 57 % 0 in
14:07 61.3 °F 46.4 °F 29.9 in West 8 mph 22 mph 58 % 0 in
14:12 62.1 °F 47.5 °F 29.9 in WNW 12 mph 22 mph 59 % 0 in
14:17 62.8 °F 45.3 °F 29.9 in WSW 11 mph 19 mph 53 % 0 in
14:22 63.1 °F 45.1 °F 29.9 in WSW 7 mph 20 mph 52 % 0 in
14:32 62.4 °F 47.5 °F 29.9 in WSW 11 mph 22 mph 58 % 0 in
14:42 62.8 °F 46.9 °F 29.9 in West 16 mph 26 mph 56 % 0 in
14:47 62.8 °F 46.4 °F 29.9 in SW 9 mph 26 mph 55 % 0 in
14:52 62.4 °F 44.6 °F 29.9 in SSW 9 mph 27 mph 52 % 0 in
14:57 62.4 °F 44.6 °F 29.9 in WSW 11 mph 27 mph 52 % 0 in
15:02 62.2 °F 45.3 °F 29.9 in WSW 29 mph 29 mph 54 % 0 in
15:07 62.1 °F 45.1 °F 29.9 in SW 16 mph 30 mph 54 % 0 in
15:12 62.4 °F 45.5 °F 29.9 in South 7 mph 30 mph 54 % 0 in
15:17 63 °F 46 °F 29.9 in WSW 10 mph 30 mph 54 % 0 in
15:22 63.1 °F 46.2 °F 29.9 in SW 19 mph 25 mph 54 % 0 in
15:27 63.1 °F 45.1 °F 29.9 in WSW 9 mph 26 mph 52 % 0 in
15:32 62.4 °F 45.5 °F 29.9 in SW 17 mph 26 mph 54 % 0 in
15:37 62.2 °F 46.4 °F 29.9 in WNW 12 mph 26 mph 56 % 0 in
15:42 62.6 °F 45.1 °F 29.9 in West 21 mph 29 mph 53 % 0 in
15:52 62.4 °F 45.1 °F 29.9 in WSW 6 mph 29 mph 53 % 0 in
15:57 62.8 °F 45.9 °F 29.9 in WSW 16 mph 26 mph 54 % 0 in
16:02 63.1 °F 46.8 °F 29.9 in WSW 8 mph 23 mph 55 % 0 in
16:07 62.4 °F 46.9 °F 29.9 in WNW 12 mph 29 mph 57 % 0 in
16:12 61.9 °F 47.5 °F 29.9 in WSW 16 mph 30 mph 59 % 0 in
16:17 61.5 °F 48.4 °F 29.9 in SW 9 mph 30 mph 62 % 0 in
16:22 62.2 °F 50 °F 29.9 in West 13 mph 30 mph 64 % 0 in
16:27 61.5 °F 48.7 °F 29.9 in SW 22 mph 30 mph 63 % 0 in
16:32 61.3 °F 46.9 °F 29.9 in West 12 mph 30 mph 59 % 0 in
16:37 61.5 °F 47.1 °F 29.9 in SW 13 mph 30 mph 59 % 0 in
16:42 61.9 °F 48.7 °F 29.9 in West 11 mph 25 mph 62 % 0 in
16:47 61.5 °F 47.1 °F 29.9 in WSW 11 mph 24 mph 59 % 0 in
16:52 61.9 °F 47.5 °F 29.9 in WSW 14 mph 29 mph 59 % 0 in
16:57 61.9 °F 47.5 °F 29.9 in SW 16 mph 29 mph 59 % 0 in
17:02 62.1 °F 47.5 °F 29.9 in SW 12 mph 24 mph 59 % 0 in
17:07 61.9 °F 47.5 °F 29.9 in West 18 mph 24 mph 59 % 0 in
17:12 60.6 °F 47.5 °F 29.9 in SSW 13 mph 29 mph 62 % 0 in
17:17 60.1 °F 49.1 °F 29.9 in West 5 mph 29 mph 67 % 0 in
17:22 60.1 °F 48.2 °F 29.9 in SW 11 mph 29 mph 65 % 0 in
17:27 60.1 °F 49.1 °F 29.9 in WSW 12 mph 25 mph 67 % 0 in
17:32 59.9 °F 49.3 °F 29.9 in West 3 mph 21 mph 68 % 0 in
17:37 59.9 °F 49.3 °F 29.9 in SSW 7 mph 21 mph 68 % 0 in
17:42 57 °F 48 °F 29.9 in NNW 9 mph 28 mph 72 % 0 in
17:47 54.5 °F 48.7 °F 29.9 in WNW 3 mph 28 mph 81 % 0.02 in
17:52 54.7 °F 50 °F 29.9 in West 6 mph 28 mph 84 % 0.02 in
17:57 55.6 °F 50.9 °F 29.9 in WNW 4 mph 25 mph 84 % 0.02 in
18:02 56.7 °F 50.9 °F 29.9 in NW 2 mph 11 mph 81 % 0.02 in
18:12 59 °F 49.3 °F 29.9 in West 16 mph 16 mph 70 % 0.02 in
18:17 60.1 °F 49.1 °F 29.9 in West 6 mph 19 mph 67 % 0.02 in
18:22 60.4 °F 47.3 °F 29.9 in WSW 10 mph 19 mph 62 % 0.02 in
18:32 61.2 °F 46.8 °F 29.9 in WNW 11 mph 21 mph 59 % 0.02 in
18:42 59.7 °F 48 °F 29.9 in WNW 21 mph 26 mph 65 % 0.02 in
18:47 58.6 °F 49.6 °F 29.9 in West 10 mph 26 mph 72 % 0 in
18:52 59.2 °F 50.2 °F 29.9 in West 6 mph 26 mph 72 % 0.01 in
18:57 59.5 °F 49.8 °F 29.9 in West 8 mph 26 mph 70 % 0.01 in
19:02 59.4 °F 49.6 °F 29.9 in West 7 mph 16 mph 70 % 0.01 in
19:07 59.2 °F 50.2 °F 29.9 in WSW 3 mph 13 mph 72 % 0.01 in
19:12 59 °F 50 °F 29.9 in NW 15 mph 15 mph 72 % 0.01 in
19:17 56.8 °F 48.9 °F 29.9 in WNW 6 mph 19 mph 75 % 0.01 in
19:22 55.2 °F 49.1 °F 29.9 in WNW 8 mph 19 mph 80 % 0.01 in
19:27 54.5 °F 49.1 °F 29.9 in NW 2 mph 19 mph 82 % 0.01 in
19:32 54.1 °F 49.5 °F 30 in NW 8 mph 14 mph 84 % 0.01 in
19:37 54.3 °F 49.3 °F 30 in West 2 mph 15 mph 83 % 0.01 in
19:42 54.1 °F 49.1 °F 30 in WNW 6 mph 15 mph 83 % 0.01 in
19:47 54 °F 48.9 °F 30 in NW 8 mph 15 mph 83 % 0 in
19:52 53.8 °F 49.1 °F 30 in WNW 5 mph 15 mph 84 % 0 in
19:57 53.6 °F 48.6 °F 30 in WNW 5 mph 16 mph 83 % 0 in
20:02 53.4 °F 48.7 °F 30 in West 5 mph 17 mph 84 % 0 in
20:07 53.2 °F 48.9 °F 30 in North 2 mph 18 mph 85 % 0 in
20:12 53.1 °F 48.9 °F 30 in NW 2 mph 18 mph 86 % 0 in
20:17 52.9 °F 48.7 °F 30 in West 6 mph 18 mph 86 % 0 in
20:22 52.9 °F 48.7 °F 30 in WNW 5 mph 15 mph 86 % 0 in
20:27 52.7 °F 48.6 °F 30 in WNW 3 mph 13 mph 86 % 0 in
20:32 52.7 °F 48.6 °F 30 in WNW 5 mph 13 mph 86 % 0 in
20:37 52.9 °F 48.7 °F 30 in WNW 4 mph 12 mph 86 % 0 in
20:42 53.1 °F 48.7 °F 30 in WSW 2 mph 11 mph 85 % 0 in
20:47 53.6 °F 48.6 °F 30 in West 2 mph 10 mph 83 % 0 in
20:52 54 °F 48.2 °F 30 in West 5 mph 9 mph 81 % 0 in
20:57 54 °F 48.2 °F 30 in WSW 2 mph 9 mph 81 % 0 in
21:02 53.8 °F 47.8 °F 30 in West 6 mph 9 mph 80 % 0 in
21:07 53.8 °F 47.1 °F 30 in WSW 3 mph 10 mph 78 % 0 in
21:12 53.8 °F 47.1 °F 30 in West 2 mph 10 mph 78 % 0 in
21:17 53.6 °F 46.9 °F 30 in WSW 3 mph 10 mph 78 % 0 in
21:22 53.4 °F 47.1 °F 30 in WNW 3 mph 8 mph 79 % 0 in
21:32 53.4 °F 47.5 °F 30 in West 4 mph 7 mph 80 % 0 in
21:37 53.4 °F 47.5 °F 30 in WSW 4 mph 10 mph 80 % 0 in
21:42 53.4 °F 47.5 °F 30 in West 5 mph 10 mph 80 % 0 in
21:47 53.4 °F 47.5 °F 30 in SSW 3 mph 14 mph 80 % 0 in
21:52 53.4 °F 47.5 °F 30 in WSW 4 mph 14 mph 80 % 0 in
21:57 53.4 °F 47.5 °F 30 in WSW 5 mph 14 mph 80 % 0 in
22:02 53.4 °F 47.7 °F 30 in WSW 2 mph 7 mph 81 % 0 in
22:07 53.2 °F 47.5 °F 30 in SW 3 mph 8 mph 81 % 0 in
22:12 53.2 °F 47.5 °F 30 in West 4 mph 8 mph 81 % 0 in
22:17 53.1 °F 47.3 °F 30 in WSW 3 mph 9 mph 81 % 0 in
22:22 52.9 °F 47.5 °F 30 in West 2 mph 9 mph 82 % 0 in
22:27 52.5 °F 47.5 °F 30 in WSW 1 mph 7 mph 83 % 0 in
22:32 52.3 °F 47.7 °F 30 in Calm   6 mph 84 % 0 in
22:37 52.2 °F 47.8 °F 30 in WNW 1 mph 4 mph 85 % 0 in
22:47 51.6 °F 47.5 °F 30 in West 3 mph 3 mph 86 % 0 in
22:52 51.6 °F 47.5 °F 30 in WSW 2 mph 4 mph 86 % 0 in
22:57 51.8 °F 47.7 °F 30 in West 3 mph 4 mph 86 % 0 in
23:02 52.2 °F 48 °F 30 in West 5 mph 6 mph 86 % 0 in
23:12 52.7 °F 48.4 °F 30 in WSW 2 mph 8 mph 85 % 0 in
23:17 52.9 °F 48.6 °F 30 in SW 4 mph 8 mph 85 % 0 in
23:22 52.9 °F 48.2 °F 30 in SW 2 mph 8 mph 84 % 0 in
23:27 52.9 °F 48.2 °F 30 in SW 3 mph 8 mph 84 % 0 in
23:32 52.7 °F 48.4 °F 30 in SW 3 mph 8 mph 85 % 0 in
23:37 52.5 °F 48.2 °F 30 in WSW 1 mph 8 mph 85 % 0 in
23:42 52.5 °F 48.4 °F 30 in WSW 2 mph 8 mph 86 % 0 in
23:47 52.3 °F 48.2 °F 30 in SW 3 mph 8 mph 86 % 0 in
23:52 52.2 °F 48.4 °F 30 in SW 6 mph 7 mph 87 % 0 in
23:57 52.2 °F 48.4 °F 30 in SW 5 mph 8 mph 87 % 0 in
Meteo18
Compliments of Weather Underground - 4 mb

Script developed by  Jim McMurry - jmcmurry@mwt.net Adapted for the template by  Wim van der Kuil - Leuven-Template.eu

You find our weather info also at:

European Weather Network

Weather Underground

Equipment we use:

Weather-station
Davis Vue

Weather-program
Meteohub

Weather-server
Raspberry PI 2 B+

Provider
1 and 1

Davis Vue

Meteohub

Raspberry PI 2 B+

1 and 1